Newark, NJ

13:15 EDT dnia 27-lipiec-2016 (GMT -0400)
Central Business District | | Change Station

Wysokość 62 ft 40.74 °N, 74.17 °W | Updated 3 minutes ago

Scattered Clouds
obłoki zanikające
90.0 ° F
Odczuwalna 95 ° F
Płn.
1.2
Wiatr zmienny Wiatr od WsPnWs
Gusts 5.0 mph

Dziś
Wysoka -- | Niska -- ° F
--% Prawdop. opadów
Wczoraj
Wysoka -- | Niska -- ° F
Precip. -- cali
Ciśnienie 29.94 cali
Widzialność 10.0 mil
chmury Niewiele 6500 ft
obłoki zanikające 14000 ft
obłoki zanikające 25000 ft
Odczucie gorąca 95 ° F
Punkt rosy 70 ° F
Wilgotność 51%
Opady deszczu 0.00 cali
grubość pokrywy śnieżnej Niedostępne.
5:49 AM 8:16 PM
Ostatnia kwadra, 41% visible
METAR KEWR 271651Z 33005KT 10SM FEW065 SCT140 SCT250 32/15 A2994 RMK AO2 SLP137 T03170150
Ciśnienie 29.94 cali
Widzialność 10.0 mil
chmury Niewiele 6500 ft
obłoki zanikające 14000 ft
obłoki zanikające 25000 ft
Odczucie gorąca 95 ° F
Punkt rosy 70 ° F
Wilgotność 51%
Opady deszczu 0.00 cali
grubość pokrywy śnieżnej Niedostępne.
5:49 AM 8:16 PM
Ostatnia kwadra, 41% visible
METAR KEWR 271651Z 33005KT 10SM FEW065 SCT140 SCT250 32/15 A2994 RMK AO2 SLP137 T03170150

10-Day Weather Forecast

Almanac

Astronomia

Jul. 27, 2016 Wschód Zachów
Aktualny czas
Zmierzch cywilny
Zmierzch żeglarski
świt/zmierzch astronomiczny
Księżyc
całkowite oświetlenie
Długość dnia
Tomorrow will be .
, % of the Moon is Illuminated

Dzisiejsze ekstrema

State Highs State Lows

Community

WunderPhotos

Upload Photos

1,927,884 zdjęcia zostały przesłane!

WunderBlog® & News

Nearby

Jakość powietrza

  Jakość powietrza czynnik AQ Zanieczyszczenie
Not available.

Głębokość pokrywy śnieżnej

Station Depth n.p.m.

Aktywność sejsmiczna

Miejscowość Distance Mag. Time & Date
Minimum magnitude displayed is 2.5.

Temperatury wody na wybrzeżu

Miejsce Temperatura

Stations

Najbliższa stacja pogodowa

Lokalizacja stacji Temp. czynnik chłodzący wiatru Punkt rosy Wilgotność Wiatr Precip. Wysokość Uaktualniono Typ
                   

Watches & Warnings

There are currently no watches in effect.